ORBI/SDA METAR and TAF weather

Enter ICAO airport designator
Station Type Date Time Source
ORBI METAR 2024/05/29 00:00 UTC NOAA

ORBI 290000Z 36006KT CAVOK 27/11 Q1007 NOSIG


Station Type Date Time Source
ORBI Decoded METAR 2024/05/29 00:00 UTC NOAA

Station name not available
May 28, 2024 - 08:00 PM EDT / 2024.05.29 0000 UTC
Wind: from the N (360 degrees) at 7 MPH (6 KT):0
Visibility: greater than 7 mile(s):0
Temperature: 80 F (27 C)
Dew Point: 51 F (11 C)
Relative Humidity: 36%
Pressure (altimeter): 29.74 in. Hg (1007 hPa)
ob: ORBI 290000Z 36006KT CAVOK 27/11 Q1007 NOSIG
cycle: 0

Station Type Date Time Source
ORBI TAF 2024/05/28 18:40 UTC NOAA